Messwerte Gaya

Temperatur

Temperatur
°C
1618893000 10.00 10.00 37
1618896600 11.00 11.00 38
1618900200 12.00 12.00 39
1618903800 13.00 13.00 40
1618907400 14.00 14.00 40
1618911000 15.00 15.00 40
1618914600 16.00 16.00 40
1618918200 17.00 17.00 40
1618921800 18.00 18.00 39
1618925400 19.00 19.00 34
1618929000 20.00 20.00 30
1618932600 21.00 21.00 29
1618936200 22.00 22.00 29
1618939800 23.00 23.00 28
1618943400 0.00 0.00 28
1618947000 1.00 1.00
1618950600 2.00 2.00
1618954200 3.00 3.00 26
1618957800 4.00 4.00
1618961400 5.00 5.00
1618965000 6.00 6.00 23
1618968600 7.00 7.00 25
1618972200 8.00 8.00 28
1618975800 9.00 9.00 32

Aktuellste Messwerte

Wettercharakter
Wetter: freundlich
Temperatur
36 °C
Feuchtigkeit
25 %
Wind
5 km/hWindrichtung: Nordwest
Luftdruck
1008 hPa
Messzeit: 21. April 2021, 10.30Datenquelle: METAR

Weitere Messstationen in der Nähe

Messstation Temperatur Entfernung
Patna 29 °C 96 km
Ranchi 34 °C 163 km
Jharsuguda 36 °C 327 km
Kathmandu 21 °C 330 km
Kalkutta / Kolkata 34 °C 426 km
Lakhnau 30 °C 464 km

Wind

Windrichtung Böen Mittelwind
° km/h km/h
1618893000 10.00 9.00 - 10.00 280° 10
1618896600 11.00 10.00 - 11.00 270° 10
1618900200 12.00 11.00 - 12.00 260° 15
1618903800 13.00 12.00 - 13.00 310° 15
1618907400 14.00 13.00 - 14.00 300° 20
1618911000 15.00 14.00 - 15.00 330° 15
1618914600 16.00 15.00 - 16.00 320° 15
1618918200 17.00 16.00 - 17.00 300° 20
1618921800 18.00 17.00 - 18.00 350° 5
1618925400 19.00 18.00 - 19.00 0
1618929000 20.00 19.00 - 20.00 0
1618932600 21.00 20.00 - 21.00 0
1618936200 22.00 21.00 - 22.00 0
1618939800 23.00 22.00 - 23.00 0
1618943400 0.00 23.00 - 0.00 0
1618947000 1.00 0.00 - 1.00
1618950600 2.00 1.00 - 2.00
1618954200 3.00 2.00 - 3.00 0
1618957800 4.00 3.00 - 4.00
1618961400 5.00 4.00 - 5.00
1618965000 6.00 5.00 - 6.00 110° 5
1618968600 7.00 6.00 - 7.00 0
1618972200 8.00 7.00 - 8.00 0
1618975800 9.00 8.00 - 9.00 0

Ihre Wetterstation

Fehlt Ihre Wetterstation auf unserem Portal?

Schreiben Sie an network@meteonews.ch

Klima

Wann ist es am wärmsten? Wann regnet es am wenigsten? Unsere Klimadaten geben Auskunft.